createdAt,value
2019-03-29T00:01:21.569Z,5.62
2019-03-29T00:03:51.682Z,6.45
2019-03-29T00:06:21.794Z,4.75
2019-03-29T00:08:52.261Z,5.05
2019-03-29T00:11:22.488Z,9.00
2019-03-29T00:13:52.787Z,5.80
2019-03-29T00:16:22.088Z,5.25
2019-03-29T00:18:50.805Z,4.18
2019-03-29T00:21:20.935Z,4.80
2019-03-29T00:23:49.713Z,3.78
2019-03-29T00:26:19.884Z,5.65
2019-03-29T00:28:48.326Z,5.70
2019-03-29T00:31:19.102Z,5.68
2019-03-29T00:33:49.404Z,10.57
2019-03-29T00:36:19.508Z,6.43
2019-03-29T00:38:49.559Z,6.53
2019-03-29T00:41:19.656Z,5.93
2019-03-29T00:43:49.479Z,4.55
2019-03-29T00:46:19.890Z,5.65
2019-03-29T00:48:49.112Z,3.00
2019-03-29T00:51:19.217Z,3.58
2019-03-29T00:53:48.376Z,4.78
2019-03-29T00:56:18.559Z,17.60
2019-03-29T00:58:46.978Z,13.05
2019-03-29T01:01:16.394Z,8.68
2019-03-29T01:03:47.181Z,7.25
2019-03-29T01:06:18.119Z,4.15
2019-03-29T01:08:48.396Z,3.03
2019-03-29T01:11:19.410Z,9.45
2019-03-29T01:13:50.851Z,14.82
2019-03-29T01:16:19.980Z,8.00
2019-03-29T01:18:50.644Z,7.18
2019-03-29T01:21:20.724Z,5.35
2019-03-29T01:23:50.921Z,6.82
2019-03-29T01:26:20.769Z,14.77
2019-03-29T01:28:50.685Z,5.22
2019-03-29T01:31:21.057Z,4.80
2019-03-29T01:33:50.908Z,4.95
2019-03-29T01:36:20.075Z,4.68
2019-03-29T01:38:48.776Z,12.35
2019-03-29T01:41:17.140Z,5.25
2019-03-29T01:43:47.210Z,6.62
2019-03-29T01:46:16.034Z,6.15
2019-03-29T01:48:46.492Z,5.07
2019-03-29T01:51:16.636Z,5.15
2019-03-29T01:53:46.707Z,5.22
2019-03-29T01:56:15.928Z,6.07
2019-03-29T01:58:45.117Z,5.78
2019-03-29T02:01:13.717Z,7.00
2019-03-29T02:03:44.494Z,8.35
2019-03-29T02:06:14.691Z,5.03
2019-03-29T02:08:44.095Z,6.65
2019-03-29T02:11:42.425Z,7.40
2019-03-29T02:14:12.633Z,6.82
2019-03-29T02:16:41.853Z,8.32
2019-03-29T02:19:10.922Z,7.70
2019-03-29T02:21:39.648Z,4.18
2019-03-29T02:24:08.238Z,4.68
2019-03-29T02:26:36.588Z,5.10
2019-03-29T02:29:06.868Z,5.80
2019-03-29T02:31:35.500Z,5.97
2019-03-29T02:34:04.048Z,4.82
2019-03-29T02:36:34.661Z,4.75
2019-03-29T02:39:02.996Z,7.50
2019-03-29T02:41:31.284Z,5.15
2019-03-29T02:43:59.695Z,12.10
2019-03-29T02:46:28.335Z,5.18
2019-03-29T02:48:57.023Z,4.62
2019-03-29T02:51:27.258Z,5.07
2019-03-29T02:53:57.337Z,5.32
2019-03-29T02:56:27.460Z,5.37
2019-03-29T02:58:56.170Z,4.25
2019-03-29T03:01:26.087Z,4.25
2019-03-29T03:03:54.378Z,3.30
2019-03-29T03:06:23.855Z,2.55
2019-03-29T03:08:52.465Z,3.37
2019-03-29T03:11:22.800Z,3.47
2019-03-29T03:13:51.371Z,3.60
2019-03-29T03:16:20.051Z,4.55
2019-03-29T03:18:50.132Z,3.78
2019-03-29T03:21:20.219Z,3.20
2019-03-29T03:23:48.935Z,3.58
2019-03-29T03:26:17.645Z,3.08
2019-03-29T03:28:46.558Z,3.08
2019-03-29T03:31:14.973Z,3.67
2019-03-29T03:33:44.098Z,5.28
2019-03-29T03:36:12.806Z,4.85
2019-03-29T03:38:41.178Z,6.37
2019-03-29T03:41:11.599Z,5.97
2019-03-29T03:43:40.301Z,5.12
2019-03-29T03:46:08.892Z,7.80
2019-03-29T03:48:37.290Z,6.93
2019-03-29T03:51:07.364Z,8.93
2019-03-29T03:53:37.439Z,8.48
2019-03-29T03:56:07.538Z,9.77
2019-03-29T03:58:37.681Z,9.35
2019-03-29T04:01:06.818Z,11.65
2019-03-29T04:03:36.242Z,11.43
2019-03-29T04:06:05.024Z,9.15
2019-03-29T04:08:36.260Z,7.50
2019-03-29T04:11:06.353Z,6.20
2019-03-29T04:13:38.749Z,10.23
2019-03-29T04:16:07.425Z,10.30
2019-03-29T04:18:39.598Z,15.05
2019-03-29T04:21:09.843Z,16.42
2019-03-29T04:23:39.641Z,15.68
2019-03-29T04:26:09.488Z,12.82
2019-03-29T04:28:41.466Z,10.73
2019-03-29T04:31:10.715Z,9.45
2019-03-29T04:33:39.268Z,6.62
2019-03-29T04:36:07.879Z,5.25
2019-03-29T04:38:37.993Z,6.32
2019-03-29T04:41:08.106Z,11.18
2019-03-29T04:43:38.225Z,6.47
2019-03-29T04:46:08.380Z,10.98
2019-03-29T04:48:39.294Z,7.47
2019-03-29T04:51:09.168Z,6.18
2019-03-29T04:53:37.887Z,8.48
2019-03-29T04:56:07.918Z,14.90
2019-03-29T04:58:38.325Z,10.05
2019-03-29T05:01:07.101Z,9.60
2019-03-29T05:03:37.195Z,8.65
2019-03-29T05:06:05.856Z,8.45
2019-03-29T05:08:35.538Z,9.50
2019-03-29T05:11:04.147Z,9.35
2019-03-29T05:13:33.464Z,10.63
2019-03-29T05:16:03.568Z,10.10
2019-03-29T05:18:33.739Z,8.93
2019-03-29T05:21:02.438Z,8.38
2019-03-29T05:23:32.210Z,8.50
2019-03-29T05:26:00.843Z,7.80
2019-03-29T05:28:30.844Z,7.22
2019-03-29T05:30:59.528Z,8.05
2019-03-29T05:33:28.424Z,8.10
2019-03-29T05:35:57.111Z,9.05
2019-03-29T05:38:27.357Z,8.05
2019-03-29T05:40:57.373Z,7.97
2019-03-29T05:43:25.499Z,8.32
2019-03-29T05:45:55.731Z,8.95
2019-03-29T05:48:24.938Z,8.25
2019-03-29T05:50:53.314Z,6.55
2019-03-29T05:53:22.471Z,8.80
2019-03-29T05:55:51.621Z,8.60
2019-03-29T05:58:22.110Z,6.00
2019-03-29T06:00:53.605Z,5.70
2019-03-29T06:03:24.095Z,4.97
2019-03-29T06:05:52.916Z,8.10
2019-03-29T06:08:21.555Z,8.68
2019-03-29T06:10:51.669Z,9.02
2019-03-29T06:13:22.740Z,6.97
2019-03-29T06:15:52.924Z,6.22
2019-03-29T06:18:23.272Z,7.03
2019-03-29T06:20:51.984Z,6.07
2019-03-29T06:23:22.362Z,7.62
2019-03-29T06:25:50.709Z,8.27
2019-03-29T06:28:19.470Z,6.78
2019-03-29T06:30:49.792Z,5.93
2019-03-29T06:33:18.397Z,6.05
2019-03-29T06:35:48.467Z,6.20
2019-03-29T06:38:17.583Z,6.18
2019-03-29T06:40:47.371Z,5.90
2019-03-29T06:43:16.088Z,6.80
2019-03-29T06:45:48.126Z,7.87
2019-03-29T06:48:14.696Z,8.52
2019-03-29T06:50:43.083Z,10.82
2019-03-29T06:53:12.885Z,11.65
2019-03-29T06:55:41.573Z,11.75
2019-03-29T06:58:11.692Z,14.38
2019-03-29T07:00:40.474Z,15.38
2019-03-29T07:03:10.863Z,15.63
2019-03-29T07:05:41.099Z,13.93
2019-03-29T07:08:11.218Z,16.95
2019-03-29T07:10:41.565Z,17.40
2019-03-29T07:13:11.787Z,17.30
2019-03-29T07:15:42.537Z,17.52
2019-03-29T07:18:11.724Z,18.65
2019-03-29T07:20:40.392Z,19.12
2019-03-29T07:23:10.554Z,19.95
2019-03-29T07:25:39.314Z,22.55
2019-03-29T07:28:09.394Z,23.52
2019-03-29T07:30:38.036Z,27.37
2019-03-29T07:33:08.132Z,25.50
2019-03-29T07:35:38.353Z,26.30
2019-03-29T07:38:08.420Z,27.30
2019-03-29T07:40:38.288Z,25.50
2019-03-29T07:43:07.091Z,31.05
2019-03-29T07:45:36.887Z,27.58
2019-03-29T07:48:05.549Z,27.50
2019-03-29T07:50:35.845Z,28.17
2019-03-29T07:53:05.009Z,29.60
2019-03-29T07:55:36.877Z,28.75
2019-03-29T07:58:02.354Z,29.67
2019-03-29T08:00:32.577Z,30.20
2019-03-29T08:03:02.901Z,29.33
2019-03-29T08:05:35.326Z,31.12
2019-03-29T08:08:03.044Z,31.58
2019-03-29T08:10:33.024Z,30.88
2019-03-29T08:13:01.823Z,29.20
2019-03-29T08:15:30.619Z,30.67
2019-03-29T08:18:01.588Z,31.60
2019-03-29T08:20:41.747Z,32.60
2019-03-29T08:22:57.710Z,30.85
2019-03-29T08:25:28.223Z,32.22
2019-03-29T08:27:58.481Z,32.95
2019-03-29T08:30:27.162Z,32.15
2019-03-29T08:32:55.529Z,32.05
2019-03-29T08:35:26.048Z,30.80
2019-03-29T08:37:55.948Z,32.80
2019-03-29T08:40:26.101Z,32.60
2019-03-29T08:42:58.765Z,32.38
2019-03-29T08:45:28.978Z,32.35
2019-03-29T08:47:57.662Z,32.88
2019-03-29T08:50:26.871Z,33.33
2019-03-29T08:52:57.305Z,32.20
2019-03-29T08:55:25.867Z,32.25
2019-03-29T08:57:54.687Z,30.90
2019-03-29T09:00:34.404Z,31.98
2019-03-29T09:03:03.106Z,32.85
2019-03-29T09:05:33.327Z,34.17
2019-03-29T09:08:06.243Z,33.92
2019-03-29T09:10:35.004Z,32.60
2019-03-29T09:13:05.288Z,33.25
2019-03-29T09:15:34.518Z,34.10
2019-03-29T09:18:05.008Z,36.65
2019-03-29T09:20:35.724Z,35.58
2019-03-29T09:23:04.459Z,37.28
2019-03-29T09:25:32.830Z,38.60
2019-03-29T09:28:01.422Z,35.38
2019-03-29T09:30:31.436Z,37.55
2019-03-29T09:33:01.773Z,43.08
2019-03-29T09:35:32.272Z,36.63
2019-03-29T09:38:02.521Z,38.33
2019-03-29T09:40:32.288Z,39.55
2019-03-29T09:43:08.511Z,44.60
2019-03-29T09:45:31.318Z,48.97
2019-03-29T09:48:01.433Z,46.53
2019-03-29T09:50:31.683Z,52.25
2019-03-29T09:53:02.088Z,54.10
2019-03-29T09:55:32.220Z,54.97
2019-03-29T09:58:01.099Z,53.13
2019-03-29T10:00:31.264Z,52.75
2019-03-29T10:03:01.965Z,47.20
2019-03-29T10:05:32.056Z,54.38
2019-03-29T10:08:00.675Z,54.53
2019-03-29T10:10:34.212Z,54.00
2019-03-29T10:12:59.356Z,46.95
2019-03-29T10:15:27.954Z,47.22
2019-03-29T10:17:56.731Z,47.53
2019-03-29T10:20:25.964Z,47.25
2019-03-29T10:22:54.929Z,49.70
2019-03-29T10:25:25.032Z,48.42
2019-03-29T10:27:53.389Z,46.37
2019-03-29T10:30:36.773Z,48.72
2019-03-29T10:33:05.540Z,49.75
2019-03-29T10:35:50.166Z,45.47
2019-03-29T10:38:05.746Z,50.97
2019-03-29T10:40:36.004Z,46.83
2019-03-29T10:43:06.229Z,46.88
2019-03-29T10:45:40.155Z,47.78
2019-03-29T10:48:06.877Z,46.22
2019-03-29T10:50:36.949Z,45.42
2019-03-29T10:53:07.281Z,50.95
2019-03-29T10:55:35.949Z,52.08
2019-03-29T10:58:04.609Z,45.38
2019-03-29T11:00:35.775Z,42.58
2019-03-29T11:03:04.665Z,39.20
2019-03-29T11:05:36.797Z,40.97
2019-03-29T11:08:07.155Z,34.60
2019-03-29T11:10:38.442Z,36.80
2019-03-29T11:13:13.121Z,40.08
2019-03-29T11:15:36.239Z,38.55
2019-03-29T11:18:06.249Z,37.58
2019-03-29T11:20:35.452Z,33.80
2019-03-29T11:23:04.306Z,28.55
2019-03-29T11:25:33.076Z,33.63
2019-03-29T11:28:03.056Z,34.90
2019-03-29T11:30:42.102Z,27.37
2019-03-29T11:33:01.893Z,29.58
2019-03-29T11:35:31.135Z,30.52
2019-03-29T11:37:59.859Z,33.28
2019-03-29T11:40:28.318Z,31.98
2019-03-29T11:42:56.896Z,30.40
2019-03-29T11:45:25.608Z,30.88
2019-03-29T11:48:07.251Z,32.03
2019-03-29T11:50:22.945Z,31.55
2019-03-29T11:52:53.208Z,30.08
2019-03-29T11:55:23.809Z,25.65
2019-03-29T11:57:55.706Z,27.30
2019-03-29T12:00:24.908Z,27.10
2019-03-29T12:02:55.051Z,26.37
2019-03-29T12:05:23.785Z,25.37
2019-03-29T12:07:52.337Z,26.33
2019-03-29T12:10:21.042Z,26.62
2019-03-29T12:12:51.364Z,26.67
2019-03-29T12:15:20.949Z,25.42
2019-03-29T12:17:51.027Z,25.88
2019-03-29T12:20:19.394Z,26.33
2019-03-29T12:22:50.316Z,25.65
2019-03-29T12:25:20.356Z,23.52
2019-03-29T12:27:50.161Z,24.27
2019-03-29T12:30:31.213Z,29.35
2019-03-29T12:32:49.102Z,25.90
2019-03-29T12:35:19.356Z,24.35
2019-03-29T12:37:48.258Z,22.95
2019-03-29T12:40:18.767Z,23.23
2019-03-29T12:42:48.993Z,22.27
2019-03-29T12:45:17.981Z,22.67
2019-03-29T12:47:47.077Z,23.95
2019-03-29T12:50:15.784Z,22.37
2019-03-29T12:52:46.001Z,21.75
2019-03-29T12:55:16.104Z,22.25
2019-03-29T12:57:44.691Z,24.25
2019-03-29T13:00:13.371Z,23.38
2019-03-29T13:02:42.080Z,23.98
2019-03-29T13:05:10.651Z,23.30
2019-03-29T13:07:40.850Z,22.05
2019-03-29T13:10:09.466Z,21.00
2019-03-29T13:12:39.997Z,21.75
2019-03-29T13:15:09.665Z,21.90
2019-03-29T13:17:39.776Z,21.08
2019-03-29T13:20:08.408Z,22.05
2019-03-29T13:22:38.829Z,22.77
2019-03-29T13:25:09.350Z,21.05
2019-03-29T13:27:39.735Z,22.20
2019-03-29T13:30:08.867Z,21.65
2019-03-29T13:32:38.927Z,22.42
2019-03-29T13:35:09.148Z,20.75
2019-03-29T13:37:37.911Z,21.48
2019-03-29T13:40:09.582Z,21.02
2019-03-29T13:42:42.633Z,21.00
2019-03-29T13:45:11.337Z,22.45
2019-03-29T13:47:41.333Z,22.02
2019-03-29T13:50:11.443Z,22.70
2019-03-29T13:52:41.522Z,21.90
2019-03-29T13:55:10.172Z,28.38
2019-03-29T13:57:39.457Z,76.65
2019-03-29T14:00:10.346Z,28.65
2019-03-29T14:02:39.459Z,21.45
2019-03-29T14:05:09.576Z,22.48
2019-03-29T14:07:39.949Z,21.73
2019-03-29T14:10:10.949Z,21.08
2019-03-29T14:12:39.786Z,21.37
2019-03-29T14:15:10.792Z,20.25
2019-03-29T14:17:39.417Z,20.08
2019-03-29T14:20:09.851Z,20.92
2019-03-29T14:22:38.619Z,19.67
2019-03-29T14:25:09.311Z,33.90
2019-03-29T14:27:37.922Z,20.50
2019-03-29T14:30:06.718Z,24.33
2019-03-29T14:32:36.758Z,20.55
2019-03-29T14:35:07.562Z,19.65
2019-03-29T14:37:37.689Z,19.80
2019-03-29T14:40:08.849Z,22.37
2019-03-29T14:42:39.690Z,20.30
2019-03-29T14:45:08.448Z,20.77
2019-03-29T14:47:42.941Z,20.92
2019-03-29T14:50:09.008Z,20.92
2019-03-29T14:52:37.886Z,21.85
2019-03-29T14:55:07.506Z,21.80
2019-03-29T14:57:37.667Z,19.77
2019-03-29T15:00:08.765Z,19.30
2019-03-29T15:02:37.339Z,19.35
2019-03-29T15:05:06.339Z,19.00
2019-03-29T15:07:36.442Z,18.52
2019-03-29T15:10:06.666Z,18.35
2019-03-29T15:12:35.295Z,18.00
2019-03-29T15:15:06.332Z,18.55
2019-03-29T15:17:35.355Z,18.50
2019-03-29T15:20:05.426Z,17.80
2019-03-29T15:22:35.448Z,17.50
2019-03-29T15:25:04.489Z,16.45
2019-03-29T15:27:34.667Z,17.48
2019-03-29T15:30:03.826Z,17.23
2019-03-29T15:32:33.048Z,16.30
2019-03-29T15:35:02.634Z,15.95
2019-03-29T15:37:31.323Z,17.75
2019-03-29T15:40:01.560Z,18.87
2019-03-29T15:42:32.175Z,18.05
2019-03-29T15:45:01.364Z,18.40
2019-03-29T15:47:31.496Z,17.23
2019-03-29T15:50:00.685Z,17.10
2019-03-29T15:52:30.847Z,15.93
2019-03-29T15:55:00.841Z,17.12
2019-03-29T15:57:30.675Z,17.73
2019-03-29T16:00:00.732Z,17.08
2019-03-29T16:02:29.351Z,16.35
2019-03-29T16:04:58.074Z,16.98
2019-03-29T16:07:28.221Z,16.50
2019-03-29T16:09:58.074Z,16.83
2019-03-29T16:12:28.322Z,16.17
2019-03-29T16:14:57.101Z,17.77
2019-03-29T16:17:27.182Z,16.08
2019-03-29T16:19:56.110Z,16.67
2019-03-29T16:22:26.617Z,17.98
2019-03-29T16:24:55.403Z,16.42
2019-03-29T16:27:25.205Z,18.00
2019-03-29T16:29:52.678Z,17.77
2019-03-29T16:32:22.706Z,18.08
2019-03-29T16:34:52.940Z,16.75
2019-03-29T16:37:22.036Z,18.25
2019-03-29T16:39:52.075Z,17.58
2019-03-29T16:42:20.836Z,18.05
2019-03-29T16:44:51.149Z,16.27
2019-03-29T16:47:21.366Z,18.37
2019-03-29T16:49:51.690Z,19.00
2019-03-29T16:52:20.375Z,19.15
2019-03-29T16:54:48.951Z,18.45
2019-03-29T16:57:17.569Z,18.87
2019-03-29T16:59:45.836Z,18.48
2019-03-29T17:02:14.310Z,18.83
2019-03-29T17:04:42.980Z,18.85
2019-03-29T17:07:13.788Z,18.17
2019-03-29T17:09:43.939Z,18.60
2019-03-29T17:12:12.723Z,19.67
2019-03-29T17:14:42.809Z,18.98
2019-03-29T17:17:11.439Z,18.37
2019-03-29T17:19:40.126Z,19.33
2019-03-29T17:22:08.504Z,19.37
2019-03-29T17:24:39.851Z,20.85
2019-03-29T17:27:10.498Z,20.37
2019-03-29T17:29:39.156Z,20.40
2019-03-29T17:32:09.380Z,20.10
2019-03-29T17:34:39.593Z,20.15
2019-03-29T17:37:08.235Z,20.88
2019-03-29T17:39:39.294Z,20.10
2019-03-29T17:42:09.379Z,20.48
2019-03-29T17:44:37.619Z,19.50
2019-03-29T17:47:07.719Z,20.40
2019-03-29T17:49:36.114Z,20.23
2019-03-29T17:52:04.718Z,20.50
2019-03-29T17:54:34.804Z,20.35
2019-03-29T17:57:04.419Z,20.67
2019-03-29T17:59:32.818Z,19.73
2019-03-29T18:02:09.279Z,22.48
2019-03-29T18:04:31.257Z,20.60
2019-03-29T18:07:01.535Z,20.12
2019-03-29T18:09:30.731Z,20.85
2019-03-29T18:12:00.903Z,20.48
2019-03-29T18:14:31.012Z,20.33
2019-03-29T18:16:59.658Z,20.15
2019-03-29T18:19:28.535Z,19.25
2019-03-29T18:21:56.893Z,19.02
2019-03-29T18:24:27.002Z,20.98
2019-03-29T18:26:55.960Z,19.70
2019-03-29T18:29:24.891Z,20.85
2019-03-29T18:31:53.721Z,20.52
2019-03-29T18:34:22.383Z,20.23
2019-03-29T18:36:52.525Z,20.10
2019-03-29T18:39:20.896Z,20.15
2019-03-29T18:41:50.666Z,20.75
2019-03-29T18:44:21.051Z,19.30
2019-03-29T18:46:51.154Z,19.85
2019-03-29T18:49:19.927Z,19.85
2019-03-29T18:51:49.991Z,19.30
2019-03-29T18:54:18.728Z,19.85
2019-03-29T18:56:48.872Z,18.65
2019-03-29T18:59:18.931Z,18.92
2019-03-29T19:01:48.983Z,18.70
2019-03-29T19:04:17.799Z,18.55
2019-03-29T19:06:47.646Z,19.60
2019-03-29T19:09:17.735Z,19.62
2019-03-29T19:11:46.555Z,19.23
2019-03-29T19:14:14.874Z,18.12
2019-03-29T19:16:58.074Z,17.85
2019-03-29T19:19:13.062Z,17.52
2019-03-29T19:21:43.118Z,18.62
2019-03-29T19:24:12.634Z,18.23
2019-03-29T19:26:41.059Z,17.05
2019-03-29T19:29:09.360Z,18.00
2019-03-29T19:31:37.963Z,17.20
2019-03-29T19:34:07.048Z,18.00
2019-03-29T19:36:35.076Z,18.10
2019-03-29T19:39:03.826Z,17.20
2019-03-29T19:41:33.868Z,18.80
2019-03-29T19:44:02.754Z,15.25
2019-03-29T19:46:31.475Z,18.70
2019-03-29T19:49:02.116Z,17.30
2019-03-29T19:51:30.142Z,18.62
2019-03-29T19:54:07.328Z,17.98
2019-03-29T19:56:27.492Z,18.05
2019-03-29T19:58:56.128Z,16.65
2019-03-29T20:01:24.820Z,16.92
2019-03-29T20:03:53.498Z,17.77
2019-03-29T20:06:25.739Z,16.70
2019-03-29T20:08:52.215Z,16.77
2019-03-29T20:11:22.667Z,16.87
2019-03-29T20:13:52.803Z,18.80
2019-03-29T20:16:22.839Z,17.60
2019-03-29T20:18:51.466Z,18.52
2019-03-29T20:21:21.496Z,17.30
2019-03-29T20:23:51.593Z,19.87
2019-03-29T20:26:21.838Z,23.20
2019-03-29T20:28:50.243Z,21.62
2019-03-29T20:31:19.015Z,21.25
2019-03-29T20:33:48.173Z,17.87
2019-03-29T20:36:22.693Z,15.80
2019-03-29T20:38:48.987Z,17.27
2019-03-29T20:41:17.830Z,15.18
2019-03-29T20:43:46.497Z,17.87
2019-03-29T20:46:16.987Z,21.60
2019-03-29T20:48:46.114Z,25.37
2019-03-29T20:51:16.359Z,26.80
2019-03-29T20:53:45.048Z,23.62
2019-03-29T20:56:13.850Z,26.75
2019-03-29T20:58:43.977Z,18.87
2019-03-29T21:01:13.256Z,18.83
2019-03-29T21:03:42.018Z,18.17
2019-03-29T21:06:10.418Z,20.00
2019-03-29T21:08:40.532Z,18.77
2019-03-29T21:11:09.329Z,18.52
2019-03-29T21:13:39.465Z,17.27
2019-03-29T21:16:08.000Z,17.30
2019-03-29T21:18:38.157Z,15.85
2019-03-29T21:21:06.499Z,15.75
2019-03-29T21:23:36.636Z,17.80
2019-03-29T21:26:05.236Z,17.62
2019-03-29T21:28:35.085Z,16.12
2019-03-29T21:31:03.846Z,16.45
2019-03-29T21:33:32.726Z,18.12
2019-03-29T21:36:03.125Z,17.15
2019-03-29T21:38:32.030Z,18.35
2019-03-29T21:41:01.113Z,17.50
2019-03-29T21:43:29.703Z,19.52
2019-03-29T21:45:58.094Z,18.05
2019-03-29T21:48:29.291Z,17.98
2019-03-29T21:50:56.884Z,19.50
2019-03-29T21:53:25.476Z,16.42
2019-03-29T21:55:54.267Z,18.50
2019-03-29T21:58:23.542Z,18.75
2019-03-29T22:00:52.234Z,15.00
2019-03-29T22:03:22.360Z,15.95
2019-03-29T22:05:52.223Z,14.48
2019-03-29T22:08:20.871Z,14.50
2019-03-29T22:10:49.426Z,13.75
2019-03-29T22:13:18.643Z,12.88
2019-03-29T22:15:48.750Z,14.25
2019-03-29T22:18:17.450Z,17.83
2019-03-29T22:20:46.116Z,15.02
2019-03-29T22:23:15.193Z,15.27
2019-03-29T22:25:44.733Z,18.15
2019-03-29T22:28:14.945Z,23.15
2019-03-29T22:30:45.266Z,18.65
2019-03-29T22:33:14.158Z,17.70
2019-03-29T22:35:42.857Z,16.40
2019-03-29T22:38:11.548Z,17.48
2019-03-29T22:40:40.212Z,19.50
2019-03-29T22:43:10.285Z,19.50
2019-03-29T22:45:40.174Z,19.42
2019-03-29T22:48:09.960Z,15.77
2019-03-29T22:50:39.122Z,15.70
2019-03-29T22:53:07.838Z,14.10
2019-03-29T22:55:36.331Z,17.40
2019-03-29T22:58:06.405Z,16.50
2019-03-29T23:00:37.426Z,14.98
2019-03-29T23:03:08.163Z,18.40
2019-03-29T23:05:38.128Z,18.70
2019-03-29T23:08:08.350Z,21.20
2019-03-29T23:10:37.258Z,20.83
2019-03-29T23:13:06.074Z,19.98
2019-03-29T23:15:34.858Z,21.17
2019-03-29T23:18:05.463Z,22.62
2019-03-29T23:20:34.161Z,21.42
2019-03-29T23:23:03.973Z,21.95
2019-03-29T23:25:32.769Z,21.45
2019-03-29T23:28:01.446Z,21.15
2019-03-29T23:30:30.608Z,19.90
2019-03-29T23:32:59.643Z,20.10
2019-03-29T23:35:29.838Z,21.60
2019-03-29T23:37:59.767Z,20.42
2019-03-29T23:40:28.522Z,19.40
2019-03-29T23:42:56.940Z,19.98
2019-03-29T23:45:25.814Z,20.35
2019-03-29T23:47:54.592Z,20.92
2019-03-29T23:50:23.294Z,20.25
2019-03-29T23:52:53.641Z,20.80
2019-03-29T23:55:24.245Z,21.02
2019-03-29T23:57:53.046Z,19.95
